createdAt,value
2018-03-30T00:01:39.585Z,5.00
2018-03-30T00:04:14.052Z,5.00
2018-03-30T00:06:48.446Z,5.00
2018-03-30T00:09:34.653Z,5.20
2018-03-30T00:12:09.075Z,5.20
2018-03-30T00:14:43.409Z,5.40
2018-03-30T00:17:17.713Z,5.40
2018-03-30T00:19:52.148Z,5.40
2018-03-30T00:22:28.081Z,5.30
2018-03-30T00:25:02.510Z,5.30
2018-03-30T00:27:36.828Z,5.30
2018-03-30T00:30:11.369Z,5.20
2018-03-30T00:32:45.794Z,5.20
2018-03-30T00:35:20.293Z,5.20
2018-03-30T00:37:54.711Z,5.30
2018-03-30T00:40:29.131Z,5.20
2018-03-30T00:43:03.574Z,5.20
2018-03-30T00:45:37.895Z,5.20
2018-03-30T00:48:12.422Z,5.30
2018-03-30T00:50:46.937Z,5.40
2018-03-30T00:53:33.325Z,5.30
2018-03-30T00:56:07.659Z,5.30
2018-03-30T00:58:42.149Z,5.20
2018-03-30T01:01:16.710Z,5.10
2018-03-30T01:03:51.094Z,5.00
2018-03-30T01:06:25.527Z,5.00
2018-03-30T01:08:59.794Z,4.90
2018-03-30T01:11:34.190Z,4.90
2018-03-30T01:14:08.538Z,4.90
2018-03-30T01:16:42.838Z,5.10
2018-03-30T01:19:17.128Z,5.00
2018-03-30T01:21:51.419Z,5.00
2018-03-30T01:24:25.789Z,4.80
2018-03-30T01:27:00.294Z,5.00
2018-03-30T01:29:34.714Z,5.00
2018-03-30T01:32:09.029Z,4.90
2018-03-30T01:34:43.541Z,4.90
2018-03-30T01:37:18.062Z,4.90
2018-03-30T01:39:52.502Z,4.90
2018-03-30T01:42:27.230Z,4.80
2018-03-30T01:45:01.666Z,4.70
2018-03-30T01:47:36.050Z,4.70
2018-03-30T01:50:11.084Z,4.80
2018-03-30T01:52:45.606Z,4.80
2018-03-30T01:55:20.009Z,4.90
2018-03-30T01:57:54.418Z,4.90
2018-03-30T02:00:28.980Z,5.00
2018-03-30T02:03:04.929Z,5.00
2018-03-30T02:05:39.346Z,4.90
2018-03-30T02:08:14.531Z,5.10
2018-03-30T02:10:49.060Z,5.10
2018-03-30T02:13:23.445Z,5.20
2018-03-30T02:15:58.019Z,5.10
2018-03-30T02:18:32.358Z,5.20
2018-03-30T02:21:07.510Z,5.30
2018-03-30T02:23:41.825Z,5.20
2018-03-30T02:26:17.110Z,5.20
2018-03-30T02:28:51.409Z,5.10
2018-03-30T02:31:25.715Z,5.10
2018-03-30T02:34:00.467Z,5.10
2018-03-30T02:36:35.479Z,5.10
2018-03-30T02:39:10.013Z,5.10
2018-03-30T02:41:44.521Z,5.20
2018-03-30T02:44:19.002Z,5.10
2018-03-30T02:46:54.098Z,5.10
2018-03-30T02:49:29.206Z,5.00
2018-03-30T02:52:03.663Z,5.00
2018-03-30T02:54:38.082Z,5.00
2018-03-30T02:57:13.418Z,4.90
2018-03-30T02:59:47.858Z,4.90
2018-03-30T03:02:22.566Z,5.00
2018-03-30T03:04:56.959Z,5.10
2018-03-30T03:07:31.414Z,5.00
2018-03-30T03:10:05.710Z,5.10
2018-03-30T03:12:40.255Z,5.20
2018-03-30T03:15:14.642Z,5.30
2018-03-30T03:17:49.079Z,5.20
2018-03-30T03:20:23.381Z,5.40
2018-03-30T03:22:57.829Z,5.20
2018-03-30T03:25:32.238Z,5.10
2018-03-30T03:28:07.393Z,5.30
2018-03-30T03:30:41.814Z,5.30
2018-03-30T03:33:16.345Z,5.40
2018-03-30T03:35:52.165Z,5.40
2018-03-30T03:38:26.709Z,5.40
2018-03-30T03:41:01.138Z,5.30
2018-03-30T03:43:35.560Z,5.30
2018-03-30T03:46:09.979Z,5.30
2018-03-30T03:48:44.494Z,5.20
2018-03-30T03:51:18.922Z,5.10
2018-03-30T03:53:54.140Z,5.20
2018-03-30T03:56:28.686Z,5.10
2018-03-30T03:59:03.206Z,5.00
2018-03-30T04:01:37.722Z,4.90
2018-03-30T04:04:12.021Z,5.00
2018-03-30T04:06:46.466Z,5.00
2018-03-30T04:09:20.963Z,4.90
2018-03-30T04:11:55.397Z,5.00
2018-03-30T04:14:29.837Z,5.00
2018-03-30T04:17:04.465Z,4.90
2018-03-30T04:19:39.053Z,4.80
2018-03-30T04:22:13.502Z,4.90
2018-03-30T04:24:47.818Z,4.90
2018-03-30T04:27:31.022Z,4.90
2018-03-30T04:30:05.474Z,4.80
2018-03-30T04:32:39.889Z,4.90
2018-03-30T04:35:14.226Z,4.90
2018-03-30T04:37:48.626Z,4.90
2018-03-30T04:40:23.141Z,4.90
2018-03-30T04:42:57.468Z,4.90
2018-03-30T04:45:31.834Z,4.90
2018-03-30T04:48:06.309Z,5.00
2018-03-30T04:50:40.838Z,5.10
2018-03-30T04:53:15.258Z,5.10
2018-03-30T04:55:49.682Z,5.30
2018-03-30T04:58:24.198Z,5.40
2018-03-30T05:00:58.489Z,5.40
2018-03-30T05:03:33.017Z,5.30
2018-03-30T05:06:07.266Z,5.30
2018-03-30T05:08:41.650Z,5.40
2018-03-30T05:11:16.074Z,5.40
2018-03-30T05:13:50.517Z,5.60
2018-03-30T05:16:25.526Z,5.70
2018-03-30T05:19:00.081Z,5.70
2018-03-30T05:21:34.330Z,5.70
2018-03-30T05:24:08.685Z,5.70
2018-03-30T05:26:43.106Z,5.70
2018-03-30T05:29:17.577Z,5.70
2018-03-30T05:31:53.616Z,5.80
2018-03-30T05:34:28.250Z,5.70
2018-03-30T05:37:02.661Z,6.00
2018-03-30T05:39:37.082Z,6.10
2018-03-30T05:42:11.369Z,6.00
2018-03-30T05:44:45.840Z,5.90
2018-03-30T05:47:20.117Z,5.70
2018-03-30T05:49:54.434Z,5.70
2018-03-30T05:52:29.092Z,5.70
2018-03-30T05:55:03.610Z,5.80
2018-03-30T05:57:37.899Z,5.70
2018-03-30T06:00:13.058Z,5.80
2018-03-30T06:02:47.494Z,5.80
2018-03-30T06:05:21.883Z,6.00
2018-03-30T06:07:56.947Z,6.00
2018-03-30T06:10:31.320Z,6.00
2018-03-30T06:13:05.877Z,5.90
2018-03-30T06:15:40.179Z,5.90
2018-03-30T06:18:14.438Z,6.00
2018-03-30T06:20:48.941Z,6.00
2018-03-30T06:23:23.317Z,6.00
2018-03-30T06:25:57.858Z,6.00
2018-03-30T06:28:32.097Z,5.90
2018-03-30T06:31:06.403Z,5.90
2018-03-30T06:33:41.013Z,5.90
2018-03-30T06:36:15.482Z,6.00
2018-03-30T06:38:49.985Z,6.00
2018-03-30T06:41:24.245Z,5.90
2018-03-30T06:43:58.637Z,6.00
2018-03-30T06:46:33.054Z,6.00
2018-03-30T06:49:07.568Z,6.00
2018-03-30T06:51:41.920Z,6.10
2018-03-30T06:54:16.309Z,6.20
2018-03-30T06:56:50.814Z,6.20
2018-03-30T06:59:25.053Z,6.20
2018-03-30T07:01:59.362Z,6.10
2018-03-30T07:04:34.378Z,6.00
2018-03-30T07:07:08.826Z,5.90
2018-03-30T07:09:43.098Z,6.10
2018-03-30T07:12:17.362Z,6.10
2018-03-30T07:14:51.784Z,6.10
2018-03-30T07:17:26.281Z,6.10
2018-03-30T07:20:00.734Z,6.20
2018-03-30T07:22:35.137Z,6.30
2018-03-30T07:25:09.366Z,6.40
2018-03-30T07:27:43.785Z,6.50
2018-03-30T07:30:18.153Z,6.60
2018-03-30T07:32:52.617Z,6.80
2018-03-30T07:35:27.226Z,6.80
2018-03-30T07:38:01.749Z,6.90
2018-03-30T07:40:36.296Z,6.90
2018-03-30T07:43:10.580Z,7.20
2018-03-30T07:45:44.845Z,7.40
2018-03-30T07:48:19.217Z,7.70
2018-03-30T07:50:54.267Z,8.90
2018-03-30T07:53:28.593Z,8.80
2018-03-30T07:56:02.829Z,8.80
2018-03-30T07:58:37.066Z,9.10
2018-03-30T08:01:11.326Z,9.30
2018-03-30T08:03:45.833Z,9.70
2018-03-30T08:06:20.304Z,10.10
2018-03-30T08:08:54.582Z,10.70
2018-03-30T08:11:28.830Z,11.00
2018-03-30T08:14:03.158Z,11.30
2018-03-30T08:16:37.440Z,11.00
2018-03-30T08:19:11.986Z,10.30
2018-03-30T08:21:46.498Z,10.50
2018-03-30T08:24:21.721Z,11.40
2018-03-30T08:26:56.589Z,11.30
2018-03-30T08:29:31.886Z,10.90
2018-03-30T08:32:06.261Z,10.80
2018-03-30T08:34:40.632Z,10.50
2018-03-30T08:37:15.185Z,10.40
2018-03-30T08:39:50.197Z,11.10
2018-03-30T08:42:24.475Z,11.00
2018-03-30T08:44:58.726Z,11.60
2018-03-30T08:47:33.146Z,11.00
2018-03-30T08:50:07.409Z,10.80
2018-03-30T08:52:45.578Z,11.00
2018-03-30T08:55:20.622Z,10.80
2018-03-30T08:57:55.250Z,10.80
2018-03-30T09:00:29.773Z,10.70
2018-03-30T09:03:04.214Z,10.80
2018-03-30T09:05:51.814Z,10.80
2018-03-30T09:08:26.264Z,11.20
2018-03-30T09:11:00.882Z,10.90
2018-03-30T09:13:35.202Z,10.80
2018-03-30T09:16:09.627Z,10.90
2018-03-30T09:18:44.155Z,11.10
2018-03-30T09:21:18.565Z,11.10
2018-03-30T09:23:52.975Z,11.00
2018-03-30T09:26:27.513Z,11.10
2018-03-30T09:29:02.634Z,12.10
2018-03-30T09:31:37.146Z,12.00
2018-03-30T09:34:11.461Z,12.60
2018-03-30T09:36:45.978Z,12.70
2018-03-30T09:39:20.542Z,13.30
2018-03-30T09:41:54.870Z,13.10
2018-03-30T09:44:29.275Z,13.10
2018-03-30T09:47:03.685Z,12.90
2018-03-30T09:49:37.965Z,12.90
2018-03-30T09:54:55.663Z,13.50
2018-03-30T09:57:29.922Z,13.50
2018-03-30T10:00:07.834Z,14.00
2018-03-30T10:02:42.082Z,14.90
2018-03-30T10:05:17.532Z,16.10
2018-03-30T10:07:52.889Z,15.80
2018-03-30T10:10:27.509Z,15.70
2018-03-30T10:13:02.785Z,15.80
2018-03-30T10:15:37.098Z,15.70
2018-03-30T10:18:11.632Z,16.40
2018-03-30T10:20:45.965Z,17.10
2018-03-30T10:23:21.026Z,16.20
2018-03-30T10:25:56.294Z,16.60
2018-03-30T10:28:31.007Z,16.50
2018-03-30T10:31:05.441Z,17.50
2018-03-30T10:33:39.863Z,17.70
2018-03-30T10:36:14.386Z,17.40
2018-03-30T10:38:48.803Z,17.30
2018-03-30T10:41:23.238Z,17.10
2018-03-30T10:43:57.718Z,17.10
2018-03-30T10:46:32.246Z,16.60
2018-03-30T10:49:06.985Z,16.50
2018-03-30T10:51:41.310Z,16.90
2018-03-30T10:54:15.838Z,17.40
2018-03-30T10:56:50.333Z,17.30
2018-03-30T10:59:24.786Z,17.60
2018-03-30T11:01:59.110Z,17.60
2018-03-30T11:04:33.701Z,17.40
2018-03-30T11:07:08.132Z,18.00
2018-03-30T11:09:42.522Z,18.20
2018-03-30T11:12:16.995Z,17.70
2018-03-30T11:14:51.257Z,17.50
2018-03-30T11:17:25.842Z,17.90
2018-03-30T11:20:00.098Z,17.20
2018-03-30T11:22:34.580Z,17.40
2018-03-30T11:25:08.850Z,17.60
2018-03-30T11:27:43.510Z,17.60
2018-03-30T11:30:18.038Z,17.50
2018-03-30T11:32:52.330Z,17.20
2018-03-30T11:35:26.854Z,17.10
2018-03-30T11:38:01.410Z,16.00
2018-03-30T11:40:35.646Z,16.20
2018-03-30T11:43:10.046Z,16.80
2018-03-30T11:45:44.557Z,17.20
2018-03-30T11:48:18.953Z,17.30
2018-03-30T11:50:54.207Z,17.40
2018-03-30T11:53:28.528Z,17.40
2018-03-30T11:56:02.971Z,17.20
2018-03-30T11:58:37.459Z,17.30
2018-03-30T12:01:11.702Z,16.80
2018-03-30T12:03:46.025Z,16.80
2018-03-30T12:06:20.282Z,16.70
2018-03-30T12:08:55.353Z,17.00
2018-03-30T12:11:48.989Z,17.00
2018-03-30T12:14:23.461Z,16.80
2018-03-30T12:16:57.966Z,16.70
2018-03-30T12:19:32.309Z,16.70
2018-03-30T12:22:07.023Z,17.10
2018-03-30T12:24:44.869Z,16.30
2018-03-30T12:27:19.250Z,16.90
2018-03-30T12:29:53.868Z,17.30
2018-03-30T12:32:28.152Z,16.50
2018-03-30T12:35:02.406Z,16.60
2018-03-30T12:37:36.810Z,17.70
2018-03-30T12:40:11.411Z,17.80
2018-03-30T12:42:57.098Z,17.90
2018-03-30T12:45:31.330Z,16.90
2018-03-30T12:48:05.782Z,17.10
2018-03-30T12:50:40.205Z,17.00
2018-03-30T12:53:14.601Z,16.50
2018-03-30T12:55:48.938Z,16.40
2018-03-30T12:58:24.081Z,16.10
2018-03-30T13:00:59.530Z,16.00
2018-03-30T13:03:34.146Z,16.50
2018-03-30T13:06:08.477Z,17.30
2018-03-30T13:08:42.834Z,17.40
2018-03-30T13:11:17.242Z,17.30
2018-03-30T13:13:52.536Z,17.20
2018-03-30T13:16:27.666Z,17.40
2018-03-30T13:19:02.218Z,17.40
2018-03-30T13:21:37.346Z,17.30
2018-03-30T13:24:11.766Z,17.30
2018-03-30T13:26:46.954Z,16.10
2018-03-30T13:29:22.354Z,16.20
2018-03-30T13:31:56.717Z,16.10
2018-03-30T13:34:31.076Z,16.20
2018-03-30T13:37:05.514Z,16.60
2018-03-30T13:39:39.778Z,17.10
2018-03-30T13:42:14.245Z,16.90
2018-03-30T13:44:48.878Z,16.00
2018-03-30T13:47:23.270Z,16.60
2018-03-30T13:49:57.729Z,16.90
2018-03-30T13:52:47.666Z,17.30
2018-03-30T13:55:22.741Z,17.50
2018-03-30T14:00:51.554Z,17.60
2018-03-30T14:03:28.738Z,17.60
2018-03-30T14:09:13.622Z,17.90
2018-03-30T14:11:50.942Z,17.80
2018-03-30T14:14:25.433Z,17.90
2018-03-30T14:20:10.222Z,17.60
2018-03-30T14:22:49.981Z,17.90
2018-03-30T14:25:27.146Z,17.40
2018-03-30T14:31:23.398Z,18.30
2018-03-30T14:33:57.822Z,18.30
2018-03-30T14:36:33.162Z,18.30
2018-03-30T14:39:16.698Z,17.80
2018-03-30T14:41:51.148Z,17.40
2018-03-30T14:44:25.482Z,16.30
2018-03-30T14:50:12.667Z,15.90
2018-03-30T14:55:53.754Z,15.40
2018-03-30T14:58:36.630Z,15.70
2018-03-30T15:04:18.247Z,17.40
2018-03-30T15:10:03.391Z,17.50
2018-03-30T15:12:47.346Z,17.90
2018-03-30T15:15:27.497Z,17.50
2018-03-30T15:18:11.850Z,17.00
2018-03-30T15:20:55.385Z,15.40
2018-03-30T15:23:33.214Z,15.40
2018-03-30T15:26:07.582Z,15.70
2018-03-30T15:28:43.757Z,15.60
2018-03-30T15:31:26.614Z,15.30
2018-03-30T15:34:13.206Z,15.20
2018-03-30T15:36:48.730Z,15.70
2018-03-30T15:39:23.010Z,15.60
2018-03-30T15:42:01.604Z,16.40
2018-03-30T15:44:39.773Z,16.90
2018-03-30T15:47:18.802Z,16.80
2018-03-30T15:49:53.131Z,17.20
2018-03-30T15:52:43.442Z,16.30
2018-03-30T15:55:17.686Z,16.50
2018-03-30T15:57:53.038Z,16.80
2018-03-30T16:00:29.899Z,16.90
2018-03-30T16:03:04.258Z,16.20
2018-03-30T16:05:38.695Z,15.70
2018-03-30T16:08:13.071Z,15.70
2018-03-30T16:10:50.191Z,16.60
2018-03-30T16:13:24.625Z,16.60
2018-03-30T16:15:59.126Z,16.10
2018-03-30T16:18:57.386Z,15.50
2018-03-30T16:21:31.334Z,15.50
2018-03-30T16:24:05.261Z,15.70
2018-03-30T16:26:39.174Z,15.50
2018-03-30T16:29:15.324Z,14.80
2018-03-30T16:31:49.234Z,14.80
2018-03-30T16:34:23.237Z,14.90
2018-03-30T16:36:57.181Z,14.80
2018-03-30T16:39:32.301Z,14.70
2018-03-30T16:42:06.998Z,14.70
2018-03-30T16:44:41.522Z,14.50
2018-03-30T16:47:15.125Z,14.50
2018-03-30T16:49:48.918Z,14.60
2018-03-30T16:52:22.648Z,14.70
2018-03-30T16:54:57.062Z,14.80
2018-03-30T16:57:30.776Z,14.70
2018-03-30T17:00:04.686Z,14.90
2018-03-30T17:02:39.402Z,14.50
2018-03-30T17:05:13.209Z,14.40
2018-03-30T17:07:46.917Z,14.20
2018-03-30T17:10:20.725Z,14.10
2018-03-30T17:12:54.529Z,14.10
2018-03-30T17:15:28.342Z,14.00
2018-03-30T17:18:02.042Z,13.90
2018-03-30T17:20:35.666Z,14.00
2018-03-30T17:23:09.422Z,13.80
2018-03-30T17:25:43.070Z,13.70
2018-03-30T17:28:17.506Z,13.80
2018-03-30T17:30:52.198Z,13.60
2018-03-30T17:33:26.753Z,13.50
2018-03-30T17:36:05.197Z,13.50
2018-03-30T17:38:39.357Z,13.60
2018-03-30T17:41:13.359Z,13.90
2018-03-30T17:43:47.069Z,13.80
2018-03-30T17:46:22.206Z,13.50
2018-03-30T17:48:56.013Z,13.50
2018-03-30T17:51:29.578Z,13.50
2018-03-30T17:54:03.193Z,13.60
2018-03-30T17:56:36.810Z,13.50
2018-03-30T17:59:10.426Z,13.40
2018-03-30T18:01:44.221Z,13.30
2018-03-30T18:04:17.925Z,13.30
2018-03-30T18:06:51.559Z,13.30
2018-03-30T18:09:25.118Z,13.20
2018-03-30T18:11:59.042Z,13.20
2018-03-30T18:14:33.368Z,13.10
2018-03-30T18:17:06.938Z,13.00
2018-03-30T18:19:40.598Z,13.00
2018-03-30T18:22:14.274Z,13.00
2018-03-30T18:24:49.070Z,13.00
2018-03-30T18:27:22.910Z,13.00
2018-03-30T18:29:56.542Z,12.90
2018-03-30T18:32:30.297Z,12.80
2018-03-30T18:35:03.954Z,12.70
2018-03-30T18:37:37.602Z,12.80
2018-03-30T18:40:11.211Z,12.70
2018-03-30T18:42:44.926Z,12.60
2018-03-30T18:45:18.529Z,12.50
2018-03-30T18:47:52.225Z,12.60
2018-03-30T18:50:25.943Z,12.50
2018-03-30T18:53:00.370Z,12.40
2018-03-30T18:55:33.991Z,12.30
2018-03-30T18:58:07.527Z,12.40
2018-03-30T19:00:41.244Z,12.30
2018-03-30T19:03:15.729Z,12.40
2018-03-30T19:05:49.590Z,12.30
2018-03-30T19:08:23.386Z,12.30
2018-03-30T19:10:57.034Z,12.40
2018-03-30T19:13:30.681Z,12.60
2018-03-30T19:16:04.345Z,12.50
2018-03-30T19:18:38.004Z,12.50
2018-03-30T19:21:11.811Z,12.40
2018-03-30T19:23:46.424Z,12.40
2018-03-30T19:26:20.241Z,12.30
2018-03-30T19:28:53.967Z,12.30
2018-03-30T19:31:27.609Z,12.30
2018-03-30T19:34:03.026Z,12.40
2018-03-30T19:36:36.605Z,12.40
2018-03-30T19:39:10.298Z,12.40
2018-03-30T19:41:44.695Z,12.30
2018-03-30T19:44:19.037Z,12.30
2018-03-30T19:46:52.641Z,12.20
2018-03-30T19:49:27.052Z,12.30
2018-03-30T19:52:00.629Z,12.20
2018-03-30T19:54:34.559Z,12.40
2018-03-30T19:57:08.994Z,12.30
2018-03-30T19:59:43.449Z,12.40
2018-03-30T20:02:17.086Z,12.30
2018-03-30T20:04:50.921Z,12.30
2018-03-30T20:07:24.519Z,12.60
2018-03-30T20:09:58.115Z,12.50
2018-03-30T20:12:32.674Z,13.20
2018-03-30T20:15:06.262Z,13.10
2018-03-30T20:17:39.967Z,12.90
2018-03-30T20:20:13.749Z,12.90
2018-03-30T20:22:47.673Z,13.10
2018-03-30T20:25:21.302Z,13.20
2018-03-30T20:27:55.078Z,13.30
2018-03-30T20:33:35.159Z,13.30
2018-03-30T20:36:08.749Z,13.10
2018-03-30T20:38:42.475Z,12.70
2018-03-30T20:41:16.158Z,12.90
2018-03-30T20:43:49.874Z,12.60
2018-03-30T20:46:23.571Z,12.40
2018-03-30T20:48:57.993Z,12.40
2018-03-30T20:51:32.515Z,12.30
2018-03-30T20:54:06.322Z,12.20
2018-03-30T20:56:40.171Z,11.90
2018-03-30T20:59:13.929Z,11.60
2018-03-30T21:01:47.737Z,11.40
2018-03-30T21:04:21.346Z,11.40
2018-03-30T21:06:54.967Z,11.20
2018-03-30T21:09:28.553Z,11.20
2018-03-30T21:12:02.145Z,11.10
2018-03-30T21:14:35.954Z,11.00
2018-03-30T21:17:09.729Z,11.00
2018-03-30T21:19:43.470Z,11.00
2018-03-30T21:22:17.186Z,11.00
2018-03-30T21:24:50.799Z,10.90
2018-03-30T21:27:24.422Z,10.90
2018-03-30T21:29:59.094Z,11.20
2018-03-30T21:32:32.889Z,11.10
2018-03-30T21:35:06.814Z,11.20
2018-03-30T21:37:40.668Z,11.30
2018-03-30T21:40:14.294Z,11.30
2018-03-30T21:42:48.637Z,11.30
2018-03-30T21:45:22.425Z,11.20
2018-03-30T21:47:56.026Z,11.20
2018-03-30T21:50:29.754Z,11.20
2018-03-30T21:53:03.462Z,11.20
2018-03-30T21:55:37.127Z,11.10
2018-03-30T21:58:10.861Z,11.20
2018-03-30T22:00:44.582Z,11.10
2018-03-30T22:03:18.202Z,11.10
2018-03-30T22:05:51.824Z,11.10
2018-03-30T22:08:25.438Z,11.00
2018-03-30T22:10:59.075Z,11.00
2018-03-30T22:13:32.666Z,11.00
2018-03-30T22:16:06.254Z,10.90
2018-03-30T22:18:39.882Z,10.90
2018-03-30T22:21:13.685Z,10.90
2018-03-30T22:23:47.399Z,10.90
2018-03-30T22:26:21.122Z,10.80
2018-03-30T22:28:54.908Z,10.70
2018-03-30T22:31:29.626Z,10.70
2018-03-30T22:34:03.231Z,10.60
2018-03-30T22:36:36.934Z,10.60
2018-03-30T22:39:10.708Z,10.50
2018-03-30T22:41:44.318Z,10.60
2018-03-30T22:44:18.853Z,10.60
2018-03-30T22:46:53.442Z,10.60
2018-03-30T22:49:27.181Z,10.70
2018-03-30T22:52:01.639Z,10.60
2018-03-30T22:54:35.222Z,10.60
2018-03-30T22:57:08.906Z,10.70
2018-03-30T22:59:42.493Z,10.50
2018-03-30T23:02:16.129Z,10.40
2018-03-30T23:04:49.713Z,10.50
2018-03-30T23:07:23.634Z,10.40
2018-03-30T23:09:58.362Z,10.40
2018-03-30T23:12:32.373Z,10.30
2018-03-30T23:15:06.253Z,10.50
2018-03-30T23:17:40.290Z,10.40
2018-03-30T23:20:14.405Z,10.40
2018-03-30T23:22:48.345Z,10.50
2018-03-30T23:25:22.426Z,10.50
2018-03-30T23:27:56.427Z,10.40
2018-03-30T23:30:30.374Z,10.40
2018-03-30T23:33:05.077Z,10.30
2018-03-30T23:35:39.062Z,10.20
2018-03-30T23:38:13.022Z,10.10
2018-03-30T23:40:46.921Z,10.00
2018-03-30T23:43:20.915Z,10.00
2018-03-30T23:45:54.749Z,10.10
2018-03-30T23:48:28.834Z,10.00
2018-03-30T23:51:02.763Z,10.10
2018-03-30T23:53:36.697Z,10.20
2018-03-30T23:56:10.768Z,10.20
2018-03-30T23:58:44.654Z,10.20
